sensor_id;sensor_type;location;lat;lon;timestamp;P1;durP1;ratioP1;P2;durP2;ratioP2
562;SDS011;266;49.514;8.294;2023-06-10T00:01:10;8.27;;;7.67;;
562;SDS011;266;49.514;8.294;2023-06-10T00:03:39;9.73;;;7.20;;
562;SDS011;266;49.514;8.294;2023-06-10T00:06:09;8.80;;;7.90;;
562;SDS011;266;49.514;8.294;2023-06-10T00:08:37;9.30;;;8.50;;
562;SDS011;266;49.514;8.294;2023-06-10T00:11:06;7.67;;;7.07;;
562;SDS011;266;49.514;8.294;2023-06-10T00:13:34;8.37;;;7.57;;
562;SDS011;266;49.514;8.294;2023-06-10T00:16:02;8.23;;;7.63;;
562;SDS011;266;49.514;8.294;2023-06-10T00:18:30;9.50;;;8.60;;
562;SDS011;266;49.514;8.294;2023-06-10T00:21:00;9.00;;;8.17;;
562;SDS011;266;49.514;8.294;2023-06-10T00:23:30;8.43;;;7.63;;
562;SDS011;266;49.514;8.294;2023-06-10T00:26:04;7.23;;;6.73;;
562;SDS011;266;49.514;8.294;2023-06-10T00:28:32;8.73;;;7.87;;
562;SDS011;266;49.514;8.294;2023-06-10T00:31:00;8.43;;;7.80;;
562;SDS011;266;49.514;8.294;2023-06-10T00:33:28;9.57;;;8.77;;
562;SDS011;266;49.514;8.294;2023-06-10T00:35:57;9.07;;;8.27;;
562;SDS011;266;49.514;8.294;2023-06-10T00:38:26;9.00;;;8.23;;
562;SDS011;266;49.514;8.294;2023-06-10T00:40:54;9.50;;;8.70;;
562;SDS011;266;49.514;8.294;2023-06-10T00:43:23;8.30;;;7.50;;
562;SDS011;266;49.514;8.294;2023-06-10T00:45:51;7.63;;;6.93;;
562;SDS011;266;49.514;8.294;2023-06-10T00:48:19;8.30;;;7.60;;
562;SDS011;266;49.514;8.294;2023-06-10T00:50:47;8.60;;;7.80;;
562;SDS011;266;49.514;8.294;2023-06-10T00:53:16;8.77;;;7.97;;
562;SDS011;266;49.514;8.294;2023-06-10T00:55:46;8.80;;;8.00;;
562;SDS011;266;49.514;8.294;2023-06-10T00:58:14;9.50;;;8.70;;
562;SDS011;266;49.514;8.294;2023-06-10T01:00:43;8.90;;;8.00;;
562;SDS011;266;49.514;8.294;2023-06-10T01:03:14;8.70;;;7.80;;
562;SDS011;266;49.514;8.294;2023-06-10T01:05:43;8.97;;;8.30;;
562;SDS011;266;49.514;8.294;2023-06-10T01:08:19;9.50;;;8.63;;
562;SDS011;266;49.514;8.294;2023-06-10T01:11:01;9.20;;;8.47;;
562;SDS011;266;49.514;8.294;2023-06-10T01:13:34;8.57;;;7.87;;
562;SDS011;266;49.514;8.294;2023-06-10T01:16:06;8.53;;;7.73;;
562;SDS011;266;49.514;8.294;2023-06-10T01:18:34;8.70;;;8.00;;
562;SDS011;266;49.514;8.294;2023-06-10T01:21:02;7.63;;;7.00;;
562;SDS011;266;49.514;8.294;2023-06-10T01:23:31;9.10;;;8.30;;
562;SDS011;266;49.514;8.294;2023-06-10T01:26:00;9.10;;;8.40;;
562;SDS011;266;49.514;8.294;2023-06-10T01:28:33;8.67;;;7.90;;
562;SDS011;266;49.514;8.294;2023-06-10T01:31:09;8.43;;;7.73;;
562;SDS011;266;49.514;8.294;2023-06-10T01:33:48;10.30;;;8.67;;
562;SDS011;266;49.514;8.294;2023-06-10T01:36:19;9.27;;;8.47;;
562;SDS011;266;49.514;8.294;2023-06-10T01:38:52;9.40;;;8.53;;
562;SDS011;266;49.514;8.294;2023-06-10T01:41:21;9.03;;;8.23;;
562;SDS011;266;49.514;8.294;2023-06-10T01:43:50;8.30;;;7.57;;
562;SDS011;266;49.514;8.294;2023-06-10T01:46:18;8.93;;;8.23;;
562;SDS011;266;49.514;8.294;2023-06-10T01:48:47;9.03;;;8.23;;
562;SDS011;266;49.514;8.294;2023-06-10T01:51:15;9.30;;;8.40;;
562;SDS011;266;49.514;8.294;2023-06-10T01:53:43;9.83;;;8.83;;
562;SDS011;266;49.514;8.294;2023-06-10T01:56:13;8.70;;;7.90;;
562;SDS011;266;49.514;8.294;2023-06-10T01:58:44;9.33;;;8.53;;
562;SDS011;266;49.514;8.294;2023-06-10T02:01:13;8.47;;;7.83;;
562;SDS011;266;49.514;8.294;2023-06-10T02:03:41;8.30;;;7.70;;
562;SDS011;266;49.514;8.294;2023-06-10T02:06:09;9.57;;;8.77;;
562;SDS011;266;49.514;8.294;2023-06-10T02:08:37;7.67;;;7.07;;
562;SDS011;266;49.514;8.294;2023-06-10T02:11:05;8.63;;;8.03;;
562;SDS011;266;49.514;8.294;2023-06-10T02:13:35;8.80;;;8.07;;
562;SDS011;266;49.514;8.294;2023-06-10T02:16:05;9.50;;;8.70;;
562;SDS011;266;49.514;8.294;2023-06-10T02:18:33;8.87;;;8.17;;
562;SDS011;266;49.514;8.294;2023-06-10T02:21:01;8.50;;;7.80;;
562;SDS011;266;49.514;8.294;2023-06-10T02:23:30;8.67;;;7.97;;
562;SDS011;266;49.514;8.294;2023-06-10T02:25:58;8.17;;;7.63;;
562;SDS011;266;49.514;8.294;2023-06-10T02:28:27;8.50;;;7.80;;
562;SDS011;266;49.514;8.294;2023-06-10T02:30:56;8.90;;;8.10;;
562;SDS011;266;49.514;8.294;2023-06-10T02:33:26;8.50;;;7.80;;
562;SDS011;266;49.514;8.294;2023-06-10T02:35:54;7.90;;;7.20;;
562;SDS011;266;49.514;8.294;2023-06-10T02:38:23;9.00;;;8.20;;
562;SDS011;266;49.514;8.294;2023-06-10T02:40:51;9.23;;;8.33;;
562;SDS011;266;49.514;8.294;2023-06-10T02:43:19;8.80;;;8.10;;
562;SDS011;266;49.514;8.294;2023-06-10T02:45:47;9.00;;;8.30;;
562;SDS011;266;49.514;8.294;2023-06-10T02:48:16;8.90;;;8.20;;
562;SDS011;266;49.514;8.294;2023-06-10T02:50:44;7.77;;;7.17;;
562;SDS011;266;49.514;8.294;2023-06-10T02:53:12;8.67;;;8.00;;
562;SDS011;266;49.514;8.294;2023-06-10T02:55:41;8.67;;;7.87;;
562;SDS011;266;49.514;8.294;2023-06-10T02:58:09;8.67;;;7.97;;
562;SDS011;266;49.514;8.294;2023-06-10T03:00:37;8.47;;;7.77;;
562;SDS011;266;49.514;8.294;2023-06-10T03:03:06;9.00;;;8.10;;
562;SDS011;266;49.514;8.294;2023-06-10T03:05:36;8.57;;;7.87;;
562;SDS011;266;49.514;8.294;2023-06-10T03:08:04;8.10;;;7.30;;
562;SDS011;266;49.514;8.294;2023-06-10T03:10:32;9.60;;;8.70;;
562;SDS011;266;49.514;8.294;2023-06-10T03:13:00;8.57;;;7.67;;
562;SDS011;266;49.514;8.294;2023-06-10T03:15:28;8.07;;;7.37;;
562;SDS011;266;49.514;8.294;2023-06-10T03:17:59;8.03;;;7.33;;
562;SDS011;266;49.514;8.294;2023-06-10T03:20:28;7.37;;;6.77;;
562;SDS011;266;49.514;8.294;2023-06-10T03:22:58;8.80;;;7.90;;
562;SDS011;266;49.514;8.294;2023-06-10T03:25:26;8.83;;;8.03;;
562;SDS011;266;49.514;8.294;2023-06-10T03:27:55;8.10;;;7.50;;
562;SDS011;266;49.514;8.294;2023-06-10T03:30:23;8.13;;;7.43;;
562;SDS011;266;49.514;8.294;2023-06-10T03:32:51;7.90;;;7.20;;
562;SDS011;266;49.514;8.294;2023-06-10T03:35:19;8.00;;;7.20;;
562;SDS011;266;49.514;8.294;2023-06-10T03:37:48;7.73;;;7.07;;
562;SDS011;266;49.514;8.294;2023-06-10T03:40:17;7.13;;;6.63;;
562;SDS011;266;49.514;8.294;2023-06-10T03:42:48;8.20;;;7.50;;
562;SDS011;266;49.514;8.294;2023-06-10T03:45:16;8.40;;;7.70;;
562;SDS011;266;49.514;8.294;2023-06-10T03:47:44;7.77;;;7.17;;
562;SDS011;266;49.514;8.294;2023-06-10T03:50:15;8.03;;;7.43;;
562;SDS011;266;49.514;8.294;2023-06-10T03:52:46;8.23;;;7.53;;
562;SDS011;266;49.514;8.294;2023-06-10T03:55:14;7.77;;;7.13;;
562;SDS011;266;49.514;8.294;2023-06-10T03:57:44;7.53;;;6.93;;
562;SDS011;266;49.514;8.294;2023-06-10T04:00:13;8.80;;;7.90;;
562;SDS011;266;49.514;8.294;2023-06-10T04:02:41;7.37;;;6.77;;
562;SDS011;266;49.514;8.294;2023-06-10T04:05:15;8.27;;;7.40;;
562;SDS011;266;49.514;8.294;2023-06-10T04:07:43;7.93;;;7.23;;
562;SDS011;266;49.514;8.294;2023-06-10T04:10:12;8.60;;;7.70;;
562;SDS011;266;49.514;8.294;2023-06-10T04:12:40;8.13;;;7.50;;
562;SDS011;266;49.514;8.294;2023-06-10T04:15:10;8.23;;;7.50;;
562;SDS011;266;49.514;8.294;2023-06-10T04:17:39;7.47;;;6.67;;
562;SDS011;266;49.514;8.294;2023-06-10T04:20:07;8.73;;;7.93;;
562;SDS011;266;49.514;8.294;2023-06-10T04:22:36;6.70;;;6.10;;
562;SDS011;266;49.514;8.294;2023-06-10T04:25:04;7.90;;;7.20;;
562;SDS011;266;49.514;8.294;2023-06-10T04:27:34;7.53;;;6.37;;
562;SDS011;266;49.514;8.294;2023-06-10T04:30:02;7.70;;;7.10;;
562;SDS011;266;49.514;8.294;2023-06-10T04:32:32;8.60;;;7.43;;
562;SDS011;266;49.514;8.294;2023-06-10T04:35:02;7.70;;;7.00;;
562;SDS011;266;49.514;8.294;2023-06-10T04:37:31;9.43;;;8.13;;
562;SDS011;266;49.514;8.294;2023-06-10T04:39:59;8.00;;;7.30;;
562;SDS011;266;49.514;8.294;2023-06-10T04:42:27;8.73;;;7.97;;
562;SDS011;266;49.514;8.294;2023-06-10T04:44:55;7.70;;;6.40;;
562;SDS011;266;49.514;8.294;2023-06-10T04:47:23;9.87;;;7.73;;
562;SDS011;266;49.514;8.294;2023-06-10T04:49:54;7.57;;;6.83;;
562;SDS011;266;49.514;8.294;2023-06-10T04:52:22;8.27;;;7.47;;
562;SDS011;266;49.514;8.294;2023-06-10T04:54:50;6.40;;;5.90;;
562;SDS011;266;49.514;8.294;2023-06-10T04:57:18;8.67;;;7.87;;
562;SDS011;266;49.514;8.294;2023-06-10T04:59:46;7.50;;;6.90;;
562;SDS011;266;49.514;8.294;2023-06-10T05:02:14;8.60;;;7.90;;
562;SDS011;266;49.514;8.294;2023-06-10T05:04:42;8.50;;;7.80;;
562;SDS011;266;49.514;8.294;2023-06-10T05:07:12;9.90;;;7.90;;
562;SDS011;266;49.514;8.294;2023-06-10T05:09:40;7.20;;;6.60;;
562;SDS011;266;49.514;8.294;2023-06-10T05:12:08;8.33;;;7.63;;
562;SDS011;266;49.514;8.294;2023-06-10T05:14:36;8.73;;;7.93;;
562;SDS011;266;49.514;8.294;2023-06-10T05:17:05;8.13;;;7.33;;
562;SDS011;266;49.514;8.294;2023-06-10T05:19:33;7.80;;;7.30;;
562;SDS011;266;49.514;8.294;2023-06-10T05:22:02;8.07;;;7.43;;
562;SDS011;266;49.514;8.294;2023-06-10T05:24:31;7.50;;;6.90;;
562;SDS011;266;49.514;8.294;2023-06-10T05:26:59;7.40;;;6.80;;
562;SDS011;266;49.514;8.294;2023-06-10T05:29:28;7.77;;;7.17;;
562;SDS011;266;49.514;8.294;2023-06-10T05:31:56;7.10;;;6.60;;
562;SDS011;266;49.514;8.294;2023-06-10T05:34:29;8.50;;;7.70;;
562;SDS011;266;49.514;8.294;2023-06-10T05:36:57;7.93;;;7.27;;
562;SDS011;266;49.514;8.294;2023-06-10T05:39:25;7.57;;;6.97;;
562;SDS011;266;49.514;8.294;2023-06-10T05:41:54;9.00;;;7.93;;
562;SDS011;266;49.514;8.294;2023-06-10T05:44:24;7.70;;;7.00;;
562;SDS011;266;49.514;8.294;2023-06-10T05:46:52;7.20;;;6.60;;
562;SDS011;266;49.514;8.294;2023-06-10T05:49:20;7.57;;;6.70;;
562;SDS011;266;49.514;8.294;2023-06-10T05:51:48;7.33;;;6.63;;
562;SDS011;266;49.514;8.294;2023-06-10T05:54:16;7.50;;;6.77;;
562;SDS011;266;49.514;8.294;2023-06-10T05:56:44;7.60;;;7.00;;
562;SDS011;266;49.514;8.294;2023-06-10T05:59:13;7.10;;;6.60;;
562;SDS011;266;49.514;8.294;2023-06-10T06:01:41;7.63;;;7.00;;
562;SDS011;266;49.514;8.294;2023-06-10T06:04:09;7.83;;;7.03;;
562;SDS011;266;49.514;8.294;2023-06-10T06:06:38;7.97;;;7.27;;
562;SDS011;266;49.514;8.294;2023-06-10T06:09:06;7.57;;;7.00;;
562;SDS011;266;49.514;8.294;2023-06-10T06:11:34;7.90;;;7.17;;
562;SDS011;266;49.514;8.294;2023-06-10T06:14:02;7.57;;;6.97;;
562;SDS011;266;49.514;8.294;2023-06-10T06:16:31;7.80;;;7.10;;
562;SDS011;266;49.514;8.294;2023-06-10T06:18:59;8.23;;;7.43;;
562;SDS011;266;49.514;8.294;2023-06-10T06:21:27;7.20;;;6.50;;
562;SDS011;266;49.514;8.294;2023-06-10T06:23:55;7.13;;;6.53;;
562;SDS011;266;49.514;8.294;2023-06-10T06:26:24;7.20;;;6.70;;
562;SDS011;266;49.514;8.294;2023-06-10T06:28:53;8.30;;;7.60;;
562;SDS011;266;49.514;8.294;2023-06-10T06:31:21;7.50;;;6.80;;
562;SDS011;266;49.514;8.294;2023-06-10T06:33:50;7.50;;;6.90;;
562;SDS011;266;49.514;8.294;2023-06-10T06:36:18;8.07;;;6.23;;
562;SDS011;266;49.514;8.294;2023-06-10T06:38:46;8.13;;;7.47;;
562;SDS011;266;49.514;8.294;2023-06-10T06:41:14;7.47;;;6.77;;
562;SDS011;266;49.514;8.294;2023-06-10T06:43:42;7.10;;;6.50;;
562;SDS011;266;49.514;8.294;2023-06-10T06:46:10;7.00;;;6.40;;
562;SDS011;266;49.514;8.294;2023-06-10T06:48:42;9.23;;;6.07;;
562;SDS011;266;49.514;8.294;2023-06-10T06:51:12;6.60;;;6.20;;
562;SDS011;266;49.514;8.294;2023-06-10T06:53:40;7.63;;;6.93;;
562;SDS011;266;49.514;8.294;2023-06-10T06:56:11;7.80;;;6.80;;
562;SDS011;266;49.514;8.294;2023-06-10T06:58:39;6.90;;;6.30;;
562;SDS011;266;49.514;8.294;2023-06-10T07:01:07;6.97;;;6.37;;
562;SDS011;266;49.514;8.294;2023-06-10T07:03:35;6.80;;;6.20;;
562;SDS011;266;49.514;8.294;2023-06-10T07:06:03;8.47;;;7.60;;
562;SDS011;266;49.514;8.294;2023-06-10T07:08:32;6.40;;;5.90;;
562;SDS011;266;49.514;8.294;2023-06-10T07:11:00;7.13;;;6.53;;
562;SDS011;266;49.514;8.294;2023-06-10T07:13:28;7.37;;;6.53;;
562;SDS011;266;49.514;8.294;2023-06-10T07:15:56;7.10;;;6.60;;
562;SDS011;266;49.514;8.294;2023-06-10T07:18:24;6.73;;;6.13;;
562;SDS011;266;49.514;8.294;2023-06-10T07:20:52;6.60;;;6.00;;
562;SDS011;266;49.514;8.294;2023-06-10T07:23:20;8.10;;;6.90;;
562;SDS011;266;49.514;8.294;2023-06-10T07:25:49;7.17;;;6.50;;
562;SDS011;266;49.514;8.294;2023-06-10T07:28:17;6.50;;;5.90;;
562;SDS011;266;49.514;8.294;2023-06-10T07:30:45;7.23;;;6.63;;
562;SDS011;266;49.514;8.294;2023-06-10T07:33:13;6.50;;;6.00;;
562;SDS011;266;49.514;8.294;2023-06-10T07:35:41;6.70;;;6.20;;
562;SDS011;266;49.514;8.294;2023-06-10T07:38:10;6.63;;;6.13;;
562;SDS011;266;49.514;8.294;2023-06-10T07:40:38;6.13;;;5.53;;
562;SDS011;266;49.514;8.294;2023-06-10T07:43:08;6.30;;;5.80;;
562;SDS011;266;49.514;8.294;2023-06-10T07:45:36;6.70;;;6.10;;
562;SDS011;266;49.514;8.294;2023-06-10T07:48:06;6.20;;;5.70;;
562;SDS011;266;49.514;8.294;2023-06-10T07:50:35;7.40;;;6.70;;
562;SDS011;266;49.514;8.294;2023-06-10T07:53:03;5.90;;;5.40;;
562;SDS011;266;49.514;8.294;2023-06-10T07:55:31;5.93;;;5.53;;
562;SDS011;266;49.514;8.294;2023-06-10T07:57:59;8.33;;;5.83;;
562;SDS011;266;49.514;8.294;2023-06-10T08:00:28;5.67;;;5.17;;
562;SDS011;266;49.514;8.294;2023-06-10T08:02:56;6.30;;;5.80;;
562;SDS011;266;49.514;8.294;2023-06-10T08:05:24;5.60;;;5.20;;
562;SDS011;266;49.514;8.294;2023-06-10T08:07:52;6.53;;;5.83;;
562;SDS011;266;49.514;8.294;2023-06-10T08:10:21;6.40;;;5.80;;
562;SDS011;266;49.514;8.294;2023-06-10T08:12:49;5.83;;;5.40;;
562;SDS011;266;49.514;8.294;2023-06-10T08:15:17;6.30;;;5.80;;
562;SDS011;266;49.514;8.294;2023-06-10T08:17:46;5.57;;;5.17;;
562;SDS011;266;49.514;8.294;2023-06-10T08:20:14;6.27;;;5.77;;
562;SDS011;266;49.514;8.294;2023-06-10T08:22:42;6.50;;;5.97;;
562;SDS011;266;49.514;8.294;2023-06-10T08:25:10;6.43;;;5.83;;
562;SDS011;266;49.514;8.294;2023-06-10T08:27:38;5.57;;;5.17;;
562;SDS011;266;49.514;8.294;2023-06-10T08:30:07;6.80;;;6.20;;
562;SDS011;266;49.514;8.294;2023-06-10T08:32:36;7.20;;;6.13;;
562;SDS011;266;49.514;8.294;2023-06-10T08:35:06;6.30;;;5.80;;
562;SDS011;266;49.514;8.294;2023-06-10T08:37:35;6.87;;;6.27;;
562;SDS011;266;49.514;8.294;2023-06-10T08:40:04;6.30;;;5.70;;
562;SDS011;266;49.514;8.294;2023-06-10T08:42:33;5.60;;;5.20;;
562;SDS011;266;49.514;8.294;2023-06-10T08:45:07;5.20;;;4.80;;
562;SDS011;266;49.514;8.294;2023-06-10T08:47:39;6.43;;;5.50;;
562;SDS011;266;49.514;8.294;2023-06-10T08:50:13;5.97;;;5.37;;
562;SDS011;266;49.514;8.294;2023-06-10T08:52:44;5.97;;;5.50;;
562;SDS011;266;49.514;8.294;2023-06-10T08:55:17;5.90;;;5.50;;
562;SDS011;266;49.514;8.294;2023-06-10T08:57:55;6.30;;;5.80;;
562;SDS011;266;49.514;8.294;2023-06-10T09:00:24;6.00;;;5.03;;
562;SDS011;266;49.514;8.294;2023-06-10T09:02:53;6.17;;;5.67;;
562;SDS011;266;49.514;8.294;2023-06-10T09:05:24;5.33;;;4.93;;
562;SDS011;266;49.514;8.294;2023-06-10T09:07:52;5.10;;;4.77;;
562;SDS011;266;49.514;8.294;2023-06-10T09:10:21;5.13;;;4.80;;
562;SDS011;266;49.514;8.294;2023-06-10T09:12:49;5.77;;;5.27;;
562;SDS011;266;49.514;8.294;2023-06-10T09:15:17;5.17;;;4.77;;
562;SDS011;266;49.514;8.294;2023-06-10T09:17:45;5.00;;;4.67;;
562;SDS011;266;49.514;8.294;2023-06-10T09:20:14;5.43;;;5.03;;
562;SDS011;266;49.514;8.294;2023-06-10T09:22:44;5.37;;;4.97;;
562;SDS011;266;49.514;8.294;2023-06-10T09:25:12;4.83;;;4.53;;
562;SDS011;266;49.514;8.294;2023-06-10T09:27:45;6.10;;;5.60;;
562;SDS011;266;49.514;8.294;2023-06-10T09:30:25;6.47;;;5.80;;
562;SDS011;266;49.514;8.294;2023-06-10T09:32:55;6.13;;;5.67;;
562;SDS011;266;49.514;8.294;2023-06-10T09:35:24;5.20;;;4.80;;
562;SDS011;266;49.514;8.294;2023-06-10T09:37:55;5.70;;;5.30;;
562;SDS011;266;49.514;8.294;2023-06-10T09:40:25;6.43;;;5.80;;
562;SDS011;266;49.514;8.294;2023-06-10T09:42:54;6.20;;;5.60;;
562;SDS011;266;49.514;8.294;2023-06-10T09:45:24;5.83;;;5.40;;
562;SDS011;266;49.514;8.294;2023-06-10T09:47:57;5.53;;;5.13;;
562;SDS011;266;49.514;8.294;2023-06-10T09:50:25;5.07;;;4.67;;
562;SDS011;266;49.514;8.294;2023-06-10T09:52:54;5.87;;;5.37;;
562;SDS011;266;49.514;8.294;2023-06-10T09:55:23;6.23;;;5.63;;
562;SDS011;266;49.514;8.294;2023-06-10T09:57:53;6.03;;;5.53;;
562;SDS011;266;49.514;8.294;2023-06-10T10:00:22;6.10;;;5.60;;
562;SDS011;266;49.514;8.294;2023-06-10T10:02:52;6.17;;;5.67;;
562;SDS011;266;49.514;8.294;2023-06-10T10:05:21;6.43;;;5.93;;
562;SDS011;266;49.514;8.294;2023-06-10T10:07:50;6.60;;;6.00;;
562;SDS011;266;49.514;8.294;2023-06-10T10:10:20;6.07;;;5.57;;
562;SDS011;266;49.514;8.294;2023-06-10T10:12:50;6.87;;;6.37;;
562;SDS011;266;49.514;8.294;2023-06-10T10:15:21;5.87;;;5.47;;
562;SDS011;266;49.514;8.294;2023-06-10T10:17:53;6.00;;;5.60;;
562;SDS011;266;49.514;8.294;2023-06-10T10:20:29;5.80;;;5.30;;
562;SDS011;266;49.514;8.294;2023-06-10T10:23:02;16.77;;;6.33;;
562;SDS011;266;49.514;8.294;2023-06-10T10:25:34;6.23;;;5.73;;
562;SDS011;266;49.514;8.294;2023-06-10T10:28:06;6.87;;;6.30;;
562;SDS011;266;49.514;8.294;2023-06-10T10:30:37;7.80;;;7.10;;
562;SDS011;266;49.514;8.294;2023-06-10T10:33:09;6.53;;;5.93;;
562;SDS011;266;49.514;8.294;2023-06-10T10:35:40;6.37;;;5.80;;
562;SDS011;266;49.514;8.294;2023-06-10T10:38:09;9.43;;;6.50;;
562;SDS011;266;49.514;8.294;2023-06-10T10:40:38;6.40;;;5.90;;
562;SDS011;266;49.514;8.294;2023-06-10T10:43:07;5.67;;;5.27;;
562;SDS011;266;49.514;8.294;2023-06-10T10:45:36;6.57;;;6.07;;
562;SDS011;266;49.514;8.294;2023-06-10T10:48:05;5.77;;;5.37;;
562;SDS011;266;49.514;8.294;2023-06-10T10:50:38;6.80;;;6.30;;
562;SDS011;266;49.514;8.294;2023-06-10T10:53:06;6.20;;;5.80;;
562;SDS011;266;49.514;8.294;2023-06-10T10:55:34;5.73;;;5.33;;
562;SDS011;266;49.514;8.294;2023-06-10T10:58:04;6.40;;;5.90;;
562;SDS011;266;49.514;8.294;2023-06-10T11:00:34;5.50;;;5.00;;
562;SDS011;266;49.514;8.294;2023-06-10T11:03:05;43.57;;;9.90;;
562;SDS011;266;49.514;8.294;2023-06-10T11:05:38;6.47;;;4.83;;
562;SDS011;266;49.514;8.294;2023-06-10T11:08:08;5.33;;;4.93;;
562;SDS011;266;49.514;8.294;2023-06-10T11:10:36;8.73;;;5.30;;
562;SDS011;266;49.514;8.294;2023-06-10T11:13:07;4.43;;;4.13;;
562;SDS011;266;49.514;8.294;2023-06-10T11:15:39;4.00;;;3.70;;
562;SDS011;266;49.514;8.294;2023-06-10T11:18:21;5.27;;;4.57;;
562;SDS011;266;49.514;8.294;2023-06-10T11:20:51;5.30;;;4.33;;
562;SDS011;266;49.514;8.294;2023-06-10T11:23:34;4.63;;;4.23;;
562;SDS011;266;49.514;8.294;2023-06-10T11:26:09;4.23;;;3.93;;
562;SDS011;266;49.514;8.294;2023-06-10T11:29:03;4.17;;;3.77;;
562;SDS011;266;49.514;8.294;2023-06-10T11:31:37;3.97;;;3.70;;
562;SDS011;266;49.514;8.294;2023-06-10T11:34:10;4.80;;;4.40;;
562;SDS011;266;49.514;8.294;2023-06-10T11:36:38;3.80;;;3.50;;
562;SDS011;266;49.514;8.294;2023-06-10T11:39:09;3.83;;;3.63;;
562;SDS011;266;49.514;8.294;2023-06-10T11:41:40;4.97;;;4.57;;
562;SDS011;266;49.514;8.294;2023-06-10T11:44:10;3.90;;;3.60;;
562;SDS011;266;49.514;8.294;2023-06-10T11:46:45;4.80;;;4.03;;
562;SDS011;266;49.514;8.294;2023-06-10T11:49:15;5.33;;;4.83;;
562;SDS011;266;49.514;8.294;2023-06-10T11:51:44;4.50;;;4.03;;
562;SDS011;266;49.514;8.294;2023-06-10T11:54:16;4.73;;;4.43;;
562;SDS011;266;49.514;8.294;2023-06-10T11:56:45;4.83;;;4.43;;
562;SDS011;266;49.514;8.294;2023-06-10T11:59:15;4.37;;;4.07;;
562;SDS011;266;49.514;8.294;2023-06-10T12:01:44;4.83;;;4.43;;
562;SDS011;266;49.514;8.294;2023-06-10T12:04:14;6.93;;;4.43;;
562;SDS011;266;49.514;8.294;2023-06-10T12:06:45;4.57;;;4.27;;
562;SDS011;266;49.514;8.294;2023-06-10T12:09:18;4.57;;;4.17;;
562;SDS011;266;49.514;8.294;2023-06-10T12:11:53;4.93;;;4.53;;
562;SDS011;266;49.514;8.294;2023-06-10T12:17:35;5.27;;;4.53;;
562;SDS011;266;49.514;8.294;2023-06-10T12:20:05;5.23;;;4.70;;
562;SDS011;266;49.514;8.294;2023-06-10T12:22:38;3.80;;;3.50;;
562;SDS011;266;49.514;8.294;2023-06-10T12:25:07;4.00;;;3.70;;
562;SDS011;266;49.514;8.294;2023-06-10T12:27:38;4.10;;;3.80;;
562;SDS011;266;49.514;8.294;2023-06-10T12:30:09;3.97;;;3.67;;
562;SDS011;266;49.514;8.294;2023-06-10T12:32:38;4.30;;;4.00;;
562;SDS011;266;49.514;8.294;2023-06-10T12:35:08;5.53;;;4.23;;
562;SDS011;266;49.514;8.294;2023-06-10T12:37:38;4.30;;;4.00;;
562;SDS011;266;49.514;8.294;2023-06-10T12:40:09;5.00;;;4.60;;
562;SDS011;266;49.514;8.294;2023-06-10T12:42:38;4.87;;;4.30;;
562;SDS011;266;49.514;8.294;2023-06-10T12:45:10;3.83;;;3.53;;
562;SDS011;266;49.514;8.294;2023-06-10T12:47:39;6.40;;;4.00;;
562;SDS011;266;49.514;8.294;2023-06-10T12:50:08;3.37;;;3.07;;
562;SDS011;266;49.514;8.294;2023-06-10T12:52:38;4.00;;;3.70;;
562;SDS011;266;49.514;8.294;2023-06-10T12:55:07;3.93;;;3.63;;
562;SDS011;266;49.514;8.294;2023-06-10T12:57:36;4.50;;;4.20;;
562;SDS011;266;49.514;8.294;2023-06-10T13:00:05;3.80;;;3.60;;
562;SDS011;266;49.514;8.294;2023-06-10T13:02:41;4.53;;;4.00;;
562;SDS011;266;49.514;8.294;2023-06-10T13:05:09;3.87;;;3.57;;
562;SDS011;266;49.514;8.294;2023-06-10T13:07:42;4.47;;;4.07;;
562;SDS011;266;49.514;8.294;2023-06-10T13:10:10;3.90;;;3.60;;
562;SDS011;266;49.514;8.294;2023-06-10T13:12:39;3.63;;;3.43;;
562;SDS011;266;49.514;8.294;2023-06-10T13:15:13;4.63;;;4.23;;
562;SDS011;266;49.514;8.294;2023-06-10T13:17:43;4.70;;;4.30;;
562;SDS011;266;49.514;8.294;2023-06-10T13:20:12;6.37;;;4.70;;
562;SDS011;266;49.514;8.294;2023-06-10T13:22:40;3.70;;;3.40;;
562;SDS011;266;49.514;8.294;2023-06-10T13:25:08;4.10;;;3.80;;
562;SDS011;266;49.514;8.294;2023-06-10T13:27:38;4.00;;;3.70;;
562;SDS011;266;49.514;8.294;2023-06-10T13:30:07;4.97;;;4.20;;
562;SDS011;266;49.514;8.294;2023-06-10T13:32:36;4.33;;;3.93;;
562;SDS011;266;49.514;8.294;2023-06-10T13:35:06;4.43;;;4.13;;
562;SDS011;266;49.514;8.294;2023-06-10T13:37:35;3.87;;;3.47;;
562;SDS011;266;49.514;8.294;2023-06-10T13:40:04;4.30;;;4.00;;
562;SDS011;266;49.514;8.294;2023-06-10T13:42:34;4.23;;;3.90;;
562;SDS011;266;49.514;8.294;2023-06-10T13:45:03;3.63;;;3.43;;
562;SDS011;266;49.514;8.294;2023-06-10T13:47:32;3.70;;;3.40;;
562;SDS011;266;49.514;8.294;2023-06-10T13:50:00;4.37;;;4.07;;
562;SDS011;266;49.514;8.294;2023-06-10T13:52:30;4.60;;;4.20;;
562;SDS011;266;49.514;8.294;2023-06-10T13:54:57;4.37;;;3.80;;
562;SDS011;266;49.514;8.294;2023-06-10T13:57:25;4.37;;;4.07;;
562;SDS011;266;49.514;8.294;2023-06-10T13:59:54;3.83;;;3.53;;
562;SDS011;266;49.514;8.294;2023-06-10T14:02:22;4.00;;;3.70;;
562;SDS011;266;49.514;8.294;2023-06-10T14:04:51;3.70;;;3.40;;
562;SDS011;266;49.514;8.294;2023-06-10T14:07:19;4.40;;;4.00;;
562;SDS011;266;49.514;8.294;2023-06-10T14:09:48;4.00;;;3.70;;
562;SDS011;266;49.514;8.294;2023-06-10T14:12:17;5.10;;;3.90;;
562;SDS011;266;49.514;8.294;2023-06-10T14:14:45;3.80;;;3.60;;
562;SDS011;266;49.514;8.294;2023-06-10T14:17:13;4.43;;;4.03;;
562;SDS011;266;49.514;8.294;2023-06-10T14:19:41;3.90;;;3.57;;
562;SDS011;266;49.514;8.294;2023-06-10T14:22:09;4.10;;;3.80;;
562;SDS011;266;49.514;8.294;2023-06-10T14:24:37;3.90;;;3.60;;
562;SDS011;266;49.514;8.294;2023-06-10T14:27:06;4.77;;;3.70;;
562;SDS011;266;49.514;8.294;2023-06-10T14:29:34;4.40;;;3.93;;
562;SDS011;266;49.514;8.294;2023-06-10T14:32:02;4.30;;;4.00;;
562;SDS011;266;49.514;8.294;2023-06-10T14:34:34;4.33;;;3.93;;
562;SDS011;266;49.514;8.294;2023-06-10T14:37:03;4.03;;;3.70;;
562;SDS011;266;49.514;8.294;2023-06-10T14:39:33;3.67;;;3.47;;
562;SDS011;266;49.514;8.294;2023-06-10T14:42:04;4.50;;;4.20;;
562;SDS011;266;49.514;8.294;2023-06-10T14:44:34;3.87;;;3.57;;
562;SDS011;266;49.514;8.294;2023-06-10T14:47:01;4.30;;;3.90;;
562;SDS011;266;49.514;8.294;2023-06-10T14:49:29;4.20;;;3.80;;
562;SDS011;266;49.514;8.294;2023-06-10T14:51:58;4.30;;;4.00;;
562;SDS011;266;49.514;8.294;2023-06-10T14:54:25;4.47;;;4.17;;
562;SDS011;266;49.514;8.294;2023-06-10T14:56:54;4.23;;;3.93;;
562;SDS011;266;49.514;8.294;2023-06-10T14:59:23;3.97;;;3.50;;
562;SDS011;266;49.514;8.294;2023-06-10T15:01:52;3.73;;;3.47;;
562;SDS011;266;49.514;8.294;2023-06-10T15:04:22;3.70;;;3.50;;
562;SDS011;266;49.514;8.294;2023-06-10T15:06:50;3.60;;;3.40;;
562;SDS011;266;49.514;8.294;2023-06-10T15:09:18;5.40;;;4.10;;
562;SDS011;266;49.514;8.294;2023-06-10T15:11:46;3.83;;;3.50;;
562;SDS011;266;49.514;8.294;2023-06-10T15:14:14;3.40;;;3.17;;
562;SDS011;266;49.514;8.294;2023-06-10T15:16:44;3.50;;;3.20;;
562;SDS011;266;49.514;8.294;2023-06-10T15:19:12;4.50;;;4.10;;
562;SDS011;266;49.514;8.294;2023-06-10T15:21:40;3.77;;;3.47;;
562;SDS011;266;49.514;8.294;2023-06-10T15:24:08;4.13;;;3.83;;
562;SDS011;266;49.514;8.294;2023-06-10T15:26:36;3.60;;;3.30;;
562;SDS011;266;49.514;8.294;2023-06-10T15:29:04;3.67;;;3.37;;
562;SDS011;266;49.514;8.294;2023-06-10T15:31:33;3.10;;;2.90;;
562;SDS011;266;49.514;8.294;2023-06-10T15:34:02;3.93;;;3.63;;
562;SDS011;266;49.514;8.294;2023-06-10T15:36:31;3.47;;;3.17;;
562;SDS011;266;49.514;8.294;2023-06-10T15:39:00;3.50;;;3.20;;
562;SDS011;266;49.514;8.294;2023-06-10T15:41:30;4.47;;;3.60;;
562;SDS011;266;49.514;8.294;2023-06-10T15:43:58;3.87;;;3.57;;
562;SDS011;266;49.514;8.294;2023-06-10T15:46:27;3.43;;;3.10;;
562;SDS011;266;49.514;8.294;2023-06-10T15:48:55;4.27;;;3.27;;
562;SDS011;266;49.514;8.294;2023-06-10T15:51:25;4.10;;;3.80;;
562;SDS011;266;49.514;8.294;2023-06-10T15:53:53;4.93;;;3.70;;
562;SDS011;266;49.514;8.294;2023-06-10T15:56:21;3.73;;;3.43;;
562;SDS011;266;49.514;8.294;2023-06-10T15:58:50;3.60;;;3.30;;
562;SDS011;266;49.514;8.294;2023-06-10T16:01:18;4.47;;;4.07;;